Time;durP1;ratioP1;P1;durP2;ratioP2;P2;SDS_P1;SDS_P2;PMS_P1;PMS_P2;Temp;Humidity;BMP_temperature;BMP_pressure;BME280_temperature;BME280_humidity;BME280_pressure;Samples;Min_cycle;Max_cycle;Signal;HPM_P1;HPM_P2
2023/04/13 00:03:11;;;;;;;2.85;1.90;;;;;;;4.89;100.00;99382.19;10311540;28;20074;-75
2023/04/13 00:08:11;;;;;;;1.55;0.85;;;;;;;5.08;100.00;99387.41;10356303;28;20050;-75
2023/04/13 00:13:13;;;;;;;2.97;0.85;;;;;;;5.20;100.00;99379.28;10388524;28;20485;-75
2023/04/13 00:18:14;;;;;;;2.05;1.05;;;;;;;5.28;100.00;99384.84;10366060;28;20125;-75
2023/04/13 00:23:14;;;;;;;3.40;2.35;;;;;;;5.43;100.00;99366.44;10359087;28;20048;-75
2023/04/13 00:28:15;;;;;;;4.88;1.40;;;;;;;5.46;100.00;99360.53;10394515;28;20684;-74
2023/04/13 00:33:15;;;;;;;2.97;0.80;;;;;;;5.56;100.00;99350.59;10386100;28;20045;-75
2023/04/13 00:38:17;;;;;;;1.58;0.60;;;;;;;5.61;100.00;99344.72;10367502;28;20065;-75
2023/04/13 00:43:17;;;;;;;2.28;1.30;;;;;;;5.72;100.00;99346.97;10394316;28;20068;-75
2023/04/13 00:48:18;;;;;;;3.47;1.45;;;;;;;5.81;100.00;99356.84;10377263;28;20121;-75
2023/04/13 00:53:18;;;;;;;4.72;1.00;;;;;;;5.93;100.00;99321.81;10363862;28;20172;-76
2023/04/13 00:58:18;;;;;;;3.00;0.90;;;;;;;6.00;100.00;99323.84;10384834;28;20072;-76
2023/04/13 01:03:20;;;;;;;8.20;3.25;;;;;;;6.01;100.00;99308.38;10361237;28;20057;-76
2023/04/13 01:08:31;;;;;;;2.97;0.90;;;;;;;6.01;100.00;99323.97;10390234;28;20038;-75
2023/04/13 01:13:46;;;;;;;2.97;1.65;;;;;;;5.71;100.00;99316.63;10355358;28;20048;-75
2023/04/13 01:18:49;;;;;;;5.35;1.52;;;;;;;5.36;100.00;99323.78;10357041;28;20129;-75
2023/04/13 01:24:15;;;;;;;4.82;1.00;;;;;;;5.21;100.00;99321.41;10376520;28;20038;-75
2023/04/13 01:29:17;;;;;;;3.65;1.27;;;;;;;5.10;100.00;99361.53;10421258;28;20045;-75
2023/04/13 01:34:17;;;;;;;2.93;0.90;;;;;;;5.12;100.00;99358.19;10341961;28;20056;-75
2023/04/13 01:39:21;;;;;;;5.95;1.58;;;;;;;5.14;100.00;99351.38;10359574;28;20052;-74
2023/04/13 01:44:21;;;;;;;5.10;1.50;;;;;;;5.11;100.00;99359.03;10364532;28;20073;-75
2023/04/13 01:49:22;;;;;;;3.75;1.50;;;;;;;5.20;100.00;99361.13;10371199;28;20112;-75
2023/04/13 01:54:24;;;;;;;8.98;1.95;;;;;;;5.28;100.00;99371.88;10377398;28;20037;-75
2023/04/13 01:59:25;;;;;;;9.70;2.70;;;;;;;5.46;100.00;99361.41;10395805;28;20036;-75
2023/04/13 02:04:25;;;;;;;3.88;1.60;;;;;;;5.56;100.00;99360.97;10378506;28;20444;-75
2023/04/13 02:09:27;;;;;;;2.42;1.10;;;;;;;5.50;100.00;99363.31;10372461;28;20429;-75
2023/04/13 02:14:27;;;;;;;7.60;1.85;;;;;;;5.42;100.00;99372.47;10387304;28;20041;-75
2023/04/13 02:19:28;;;;;;;5.32;1.77;;;;;;;5.45;100.00;99385.56;10361986;28;20104;-75
2023/04/13 02:24:29;;;;;;;6.57;1.77;;;;;;;5.58;100.00;99379.22;10376724;28;20125;-75
2023/04/13 02:29:29;;;;;;;3.38;1.48;;;;;;;5.59;100.00;99383.59;10317338;28;20482;-75
2023/04/13 02:34:30;;;;;;;5.10;1.23;;;;;;;5.38;100.00;99391.31;10329003;28;20069;-75
2023/04/13 02:39:31;;;;;;;3.65;1.10;;;;;;;5.34;100.00;99407.56;10338569;28;20382;-76
2023/04/13 02:44:32;;;;;;;7.93;2.67;;;;;;;5.29;100.00;99397.84;10322241;28;20087;-75
2023/04/13 02:49:33;;;;;;;4.80;2.28;;;;;;;5.35;100.00;99402.44;10353108;28;20060;-75
2023/04/13 02:54:33;;;;;;;8.93;2.65;;;;;;;5.32;100.00;99406.59;10316390;28;20455;-76
2023/04/13 02:59:34;;;;;;;8.88;2.53;;;;;;;5.22;100.00;99423.47;10370118;28;20071;-76
2023/04/13 03:04:34;;;;;;;4.43;1.60;;;;;;;5.14;100.00;99428.28;10377296;28;20483;-75
2023/04/13 03:09:36;;;;;;;4.72;1.45;;;;;;;5.04;100.00;99424.38;10389464;28;20084;-75
2023/04/13 03:14:36;;;;;;;4.93;1.87;;;;;;;4.99;100.00;99439.72;10369803;28;20049;-75
2023/04/13 03:19:37;;;;;;;10.27;3.40;;;;;;;4.94;100.00;99440.34;10396750;28;20554;-75
2023/04/13 03:24:38;;;;;;;7.40;2.90;;;;;;;4.99;100.00;99459.59;10338970;28;20042;-75
2023/04/13 03:29:39;;;;;;;2.83;1.33;;;;;;;4.99;100.00;99483.78;10376918;28;20042;-75
2023/04/13 03:34:42;;;;;;;7.55;2.80;;;;;;;4.98;100.00;99489.81;10363586;28;20494;-75
2023/04/13 03:39:43;;;;;;;6.05;2.65;;;;;;;5.00;100.00;99484.72;10396545;28;20040;-75
2023/04/13 03:44:44;;;;;;;4.68;1.55;;;;;;;4.95;100.00;99505.22;10383893;28;20029;-75
2023/04/13 03:49:44;;;;;;;4.90;1.35;;;;;;;4.99;100.00;99509.72;10381564;28;20117;-75
2023/04/13 03:54:45;;;;;;;6.90;2.00;;;;;;;4.90;100.00;99519.66;10345841;28;20405;-75
2023/04/13 03:59:45;;;;;;;6.07;1.45;;;;;;;4.96;100.00;99527.72;10364627;28;20125;-75
2023/04/13 04:04:46;;;;;;;4.50;2.30;;;;;;;5.02;100.00;99541.81;10395831;28;20072;-75
2023/04/13 04:09:46;;;;;;;4.20;1.92;;;;;;;5.03;100.00;99541.00;10343978;28;20045;-75
2023/04/13 04:14:47;;;;;;;13.15;2.50;;;;;;;5.09;100.00;99551.66;10381473;28;20457;-75
2023/04/13 04:19:47;;;;;;;7.18;3.30;;;;;;;5.09;100.00;99554.25;10374332;28;20100;-75
2023/04/13 04:24:48;;;;;;;4.05;2.55;;;;;;;4.94;100.00;99554.41;10396804;28;20072;-75
2023/04/13 04:29:49;;;;;;;5.93;3.35;;;;;;;4.82;100.00;99562.47;10378329;28;20040;-75
2023/04/13 04:34:52;;;;;;;5.53;2.33;;;;;;;4.85;100.00;99560.03;10394489;28;20052;-75
2023/04/13 04:39:53;;;;;;;5.93;2.90;;;;;;;4.94;100.00;99585.53;10362676;28;20041;-76
2023/04/13 04:44:55;;;;;;;7.00;3.10;;;;;;;4.96;100.00;99594.28;10370820;28;20124;-74
2023/04/13 04:49:56;;;;;;;5.10;2.42;;;;;;;4.93;100.00;99597.59;10377363;28;20046;-76
2023/04/13 04:54:57;;;;;;;8.90;3.00;;;;;;;5.00;100.00;99609.19;10384937;28;20049;-75
2023/04/13 04:59:58;;;;;;;8.43;2.90;;;;;;;5.05;100.00;99609.38;10392898;28;20437;-74
2023/04/13 05:04:58;;;;;;;7.65;2.25;;;;;;;5.13;100.00;99627.13;10390280;28;20041;-74
2023/04/13 05:09:59;;;;;;;8.45;3.80;;;;;;;5.19;100.00;99631.72;10383237;28;20513;-75
2023/04/13 05:14:59;;;;;;;8.20;2.58;;;;;;;5.28;100.00;99636.47;10341982;28;20398;-75
2023/04/13 05:20:00;;;;;;;4.53;2.83;;;;;;;5.23;100.00;99640.56;10343473;28;20052;-75
2023/04/13 05:25:01;;;;;;;6.55;3.30;;;;;;;5.11;100.00;99646.91;10351612;28;20080;-74
2023/04/13 05:30:02;;;;;;;6.82;3.50;;;;;;;5.06;100.00;99658.75;10362082;28;20520;-74
2023/04/13 05:35:04;;;;;;;5.07;2.78;;;;;;;5.35;100.00;99663.59;10354786;28;20045;-73
2023/04/13 05:40:12;;;;;;;9.80;2.90;;;;;;;5.71;100.00;99676.59;10365154;28;20050;-75
2023/04/13 05:45:15;;;;;;;5.00;2.20;;;;;;;5.84;100.00;99662.50;10349212;28;20486;-74
2023/04/13 05:50:16;;;;;;;8.40;2.25;;;;;;;5.85;100.00;99678.13;10366046;28;20409;-75
2023/04/13 05:55:18;;;;;;;3.95;1.00;;;;;;;6.02;100.00;99680.66;10364654;28;20052;-74
2023/04/13 06:00:20;;;;;;;13.05;6.53;;;;;;;6.04;100.00;99691.16;10378129;28;20580;-74
2023/04/13 06:05:21;;;;;;;6.38;3.35;;;;;;;6.15;100.00;99709.00;10341047;28;20120;-77
2023/04/13 06:10:21;;;;;;;12.98;7.13;;;;;;;6.53;100.00;99710.69;10314639;28;20120;-75
2023/04/13 06:15:22;;;;;;;4.35;1.33;;;;;;;7.07;100.00;99718.28;10382798;28;20140;-75
2023/04/13 06:20:23;;;;;;;2.10;0.85;;;;;;;7.12;100.00;99721.97;10363514;28;20037;-75
2023/04/13 06:25:24;;;;;;;2.15;0.60;;;;;;;7.57;100.00;99733.38;10359701;28;20046;-75
2023/04/13 06:30:24;;;;;;;4.00;1.63;;;;;;;8.15;100.00;99742.66;10377481;28;20419;-75
2023/04/13 06:35:25;;;;;;;5.63;1.27;;;;;;;8.30;100.00;99746.69;10382203;28;20088;-76
2023/04/13 06:40:26;;;;;;;4.68;1.10;;;;;;;7.78;100.00;99752.50;10383378;28;20064;-75
2023/04/13 06:45:27;;;;;;;2.03;0.90;;;;;;;7.12;100.00;99762.72;10381977;28;20057;-75
2023/04/13 06:50:27;;;;;;;4.25;1.48;;;;;;;6.86;100.00;99771.16;10364500;28;20117;-75
2023/04/13 06:55:28;;;;;;;7.05;3.88;;;;;;;6.95;100.00;99781.06;10361778;28;20045;-75
2023/04/13 07:00:28;;;;;;;7.35;2.10;;;;;;;7.31;100.00;99785.25;10364991;28;20061;-75
2023/04/13 07:05:29;;;;;;;8.45;2.05;;;;;;;8.02;100.00;99772.56;10397206;28;20540;-74
2023/04/13 07:10:29;;;;;;;6.00;2.00;;;;;;;8.18;100.00;99781.00;10396335;28;20046;-76
2023/04/13 07:15:30;;;;;;;6.78;2.58;;;;;;;8.01;100.00;99790.72;10389539;28;20064;-77
2023/04/13 07:20:30;;;;;;;6.78;2.67;;;;;;;7.96;100.00;99800.06;10398898;28;20037;-75
2023/04/13 07:25:33;;;;;;;5.25;2.30;;;;;;;7.73;100.00;99802.59;10385406;28;20411;-76
2023/04/13 07:30:33;;;;;;;7.72;3.47;;;;;;;7.64;100.00;99821.34;10413490;28;20050;-77
2023/04/13 07:35:35;;;;;;;5.88;2.45;;;;;;;8.00;100.00;99817.59;10395063;28;20048;-78
2023/04/13 07:40:36;;;;;;;5.75;2.67;;;;;;;8.28;100.00;99823.94;10368224;28;20053;-78
2023/04/13 07:45:36;;;;;;;5.50;2.13;;;;;;;8.02;100.00;99818.56;10365374;28;20124;-76
2023/04/13 07:50:41;;;;;;;5.55;3.10;;;;;;;8.11;100.00;99842.41;10324356;28;20508;-77
2023/04/13 07:55:41;;;;;;;5.55;2.15;;;;;;;8.25;100.00;99845.59;10361834;28;20069;-78
2023/04/13 08:00:42;;;;;;;11.77;3.20;;;;;;;8.28;100.00;99857.84;10362828;28;20068;-78
2023/04/13 08:05:42;;;;;;;8.80;2.58;;;;;;;8.25;100.00;99875.97;10347911;28;20057;-79
2023/04/13 08:10:43;;;;;;;6.13;2.97;;;;;;;8.35;100.00;99859.88;10362046;28;20557;-78
2023/04/13 08:15:44;;;;;;;6.30;2.10;;;;;;;8.59;100.00;99878.25;10363085;28;20122;-78
2023/04/13 08:20:44;;;;;;;12.38;3.42;;;;;;;9.39;100.00;99879.53;10364718;28;20038;-77
2023/04/13 08:25:46;;;;;;;12.65;4.93;;;;;;;10.94;100.00;99879.44;10363781;28;20033;-78
2023/04/13 08:30:46;;;;;;;10.13;2.60;;;;;;;12.23;100.00;99888.25;10363132;28;20438;-80
2023/04/13 08:35:46;;;;;;;11.70;3.72;;;;;;;12.18;100.00;99897.72;10360436;28;20046;-78
2023/04/13 08:40:47;;;;;;;7.50;2.97;;;;;;;12.78;100.00;99901.81;10361690;28;20069;-78
2023/04/13 08:45:47;;;;;;;9.23;4.35;;;;;;;12.66;100.00;99905.88;10343183;28;20034;-78
2023/04/13 08:50:51;;;;;;;9.13;2.78;;;;;;;11.56;100.00;99922.25;10336582;28;20130;-78
2023/04/13 08:55:51;;;;;;;10.23;2.60;;;;;;;10.33;100.00;99935.91;10363379;28;20425;-78
2023/04/13 09:00:52;;;;;;;12.77;3.10;;;;;;;9.74;100.00;99934.78;10344574;28;20053;-78
2023/04/13 09:06:00;;;;;;;5.90;1.92;;;;;;;9.69;100.00;99944.16;10343280;28;20064;-78
2023/04/13 09:11:02;;;;;;;7.38;2.05;;;;;;;9.42;100.00;99957.97;10344582;28;20398;-78
2023/04/13 09:16:03;;;;;;;9.60;3.17;;;;;;;9.16;100.00;99965.72;10342478;28;20052;-78
2023/04/13 09:21:04;;;;;;;5.63;2.50;;;;;;;8.89;100.00;99978.53;10358135;28;20401;-78
2023/04/13 09:26:08;;;;;;;6.25;2.38;;;;;;;8.65;100.00;100002.81;10359885;28;20120;-79
2023/04/13 09:31:12;;;;;;;18.42;5.93;;;;;;;8.78;100.00;99994.66;10344112;28;20045;-81
2023/04/13 09:36:14;;;;;;;13.13;4.43;;;;;;;9.14;100.00;100006.53;10359802;28;20038;-77
2023/04/13 09:41:14;;;;;;;11.48;2.67;;;;;;;9.55;100.00;100003.72;10343129;28;20080;-78
2023/04/13 09:46:15;;;;;;;11.27;3.83;;;;;;;9.51;100.00;100007.06;10357569;28;20549;-78
2023/04/13 09:51:15;;;;;;;9.05;4.85;;;;;;;9.34;100.00;100016.88;10353952;28;20132;-78
2023/04/13 09:56:16;;;;;;;6.90;2.20;;;;;;;10.31;100.00;100024.78;10317299;28;20041;-78
2023/04/13 10:01:16;;;;;;;8.07;2.45;;;;;;;10.77;100.00;100011.53;10318249;28;20491;-79
2023/04/13 10:06:19;;;;;;;10.07;3.08;;;;;;;10.56;100.00;100039.63;10342915;28;20042;-77
2023/04/13 10:11:19;;;;;;;;;;;;;;;11.27;100.00;100041.06;10372734;28;20045;-78
2023/04/13 10:16:55;;;;;;;9.63;4.95;;;;;;;12.05;100.00;100046.03;10358061;28;20366;-77
2023/04/13 10:21:58;;;;;;;11.05;3.55;;;;;;;11.83;100.00;100041.84;10430661;28;20121;-77
2023/04/13 10:27:09;;;;;;;10.77;2.75;;;;;;;11.60;100.00;100055.16;10389716;28;20048;-78
2023/04/13 10:32:28;;;;;;;7.20;2.63;;;;;;;11.08;100.00;100060.53;10343122;28;20048;-78
2023/04/13 10:37:29;;;;;;;4.90;2.25;;;;;;;10.90;100.00;100067.78;10359056;28;20280;-78
2023/04/13 10:42:45;;;;;;;9.98;3.17;;;;;;;10.71;100.00;100072.38;10357812;28;20505;-78
2023/04/13 10:47:46;;;;;;;7.93;2.28;;;;;;;11.03;100.00;100075.19;10336732;28;20098;-76
2023/04/13 10:52:58;;;;;;;7.47;2.35;;;;;;;11.70;100.00;100079.94;10341011;28;20046;-77
2023/04/13 10:58:00;;;;;;;7.20;2.97;;;;;;;13.12;100.00;100061.06;10341183;28;20045;-76
2023/04/13 11:03:01;;;;;;;7.43;2.08;;;;;;;14.83;84.19;100063.78;10401977;28;20033;-77
2023/04/13 11:08:03;;;;;;;4.68;2.95;;;;;;;15.23;76.68;100067.94;10345926;28;20534;-75
2023/04/13 11:13:04;;;;;;;5.82;2.63;;;;;;;15.35;74.36;100083.94;10352954;28;20378;-75
2023/04/13 11:18:04;;;;;;;7.93;2.55;;;;;;;13.25;82.15;100091.13;10364459;28;20072;-75
2023/04/13 11:23:11;;;;;;;6.72;3.67;;;;;;;12.99;86.60;100099.25;10348779;28;20037;-76
2023/04/13 11:28:11;;;;;;;8.18;2.40;;;;;;;12.99;86.51;100100.16;10332826;28;20034;-76
2023/04/13 11:33:12;;;;;;;6.90;2.42;;;;;;;14.94;77.97;100095.56;10373875;28;20179;-75
2023/04/13 11:38:16;;;;;;;4.13;1.98;;;;;;;16.63;68.71;100101.47;10385022;28;20073;-75
2023/04/13 11:43:18;;;;;;;6.07;2.50;;;;;;;15.74;64.86;100121.44;10390850;28;20065;-76
2023/04/13 11:48:18;;;;;;;7.97;2.45;;;;;;;16.35;65.63;100128.44;10378635;28;20030;-75
2023/04/13 11:53:19;;;;;;;8.45;2.80;;;;;;;13.95;64.00;100119.94;10381996;28;20549;-76
2023/04/13 11:58:20;;;;;;;6.13;3.35;;;;;;;12.27;72.42;100131.47;10364439;28;20049;-76
2023/04/13 12:03:20;;;;;;;6.93;3.28;;;;;;;14.22;75.10;100132.81;10397027;28;20030;-76
2023/04/13 12:08:24;;;;;;;14.63;3.67;;;;;;;15.27;65.77;100122.47;10371221;28;20124;-75
2023/04/13 12:13:24;;;;;;;8.40;2.80;;;;;;;14.07;71.15;100135.97;10371372;28;20485;-76
2023/04/13 12:18:25;;;;;;;11.13;3.97;;;;;;;16.83;64.41;100136.00;10394238;28;20120;-76
2023/04/13 12:23:26;;;;;;;11.10;2.40;;;;;;;18.57;57.83;100127.53;10394108;28;20244;-75
2023/04/13 12:28:28;;;;;;;10.00;2.63;;;;;;;16.43;58.65;100139.97;10363587;28;20466;-76
2023/04/13 12:33:29;;;;;;;9.20;2.33;;;;;;;16.35;56.65;100128.44;10363723;28;20034;-75
2023/04/13 12:38:29;;;;;;;8.32;3.15;;;;;;;14.16;61.27;100135.31;10372606;28;20052;-75
2023/04/13 12:43:30;;;;;;;6.20;2.03;;;;;;;15.35;56.59;100135.78;10386076;28;20381;-76
2023/04/13 12:48:30;;;;;;;5.38;1.55;;;;;;;17.01;50.69;100130.94;10385149;28;20061;-75
2023/04/13 12:53:31;;;;;;;7.95;2.80;;;;;;;17.46;48.16;100143.66;10378392;28;20121;-76
2023/04/13 12:58:31;;;;;;;5.18;2.13;;;;;;;17.70;50.02;100142.97;10392513;28;20057;-75
2023/04/13 13:03:32;;;;;;;6.65;2.15;;;;;;;18.88;48.76;100143.50;10370270;28;20461;-76
2023/04/13 13:08:32;;;;;;;5.07;2.13;;;;;;;19.58;48.46;100154.16;10363155;28;20125;-75
2023/04/13 13:13:33;;;;;;;6.97;2.22;;;;;;;16.73;48.69;100157.03;10374658;28;20409;-76
2023/04/13 13:18:33;;;;;;;6.15;1.80;;;;;;;17.90;49.81;100156.31;10392109;28;20123;-74
2023/04/13 13:23:34;;;;;;;5.15;2.42;;;;;;;16.99;48.19;100159.09;10379729;28;20037;-73
2023/04/13 13:28:34;;;;;;;3.28;1.30;;;;;;;16.96;50.29;100164.31;10388498;28;20370;-73
2023/04/13 13:33:35;;;;;;;4.60;2.05;;;;;;;17.46;48.16;100172.75;10353686;28;20129;-73
2023/04/13 13:38:36;;;;;;;5.88;1.88;;;;;;;17.85;50.22;100178.34;10381330;28;20136;-74
2023/04/13 13:43:37;;;;;;;6.45;2.58;;;;;;;18.58;44.61;100161.09;10384718;28;20034;-74
2023/04/13 13:48:37;;;;;;;5.00;1.92;;;;;;;18.35;44.19;100182.19;10381286;28;20042;-73
2023/04/13 13:53:38;;;;;;;7.68;3.38;;;;;;;17.05;48.17;100178.53;10382993;28;20069;-73
2023/04/13 13:58:38;;;;;;;5.75;2.10;;;;;;;17.61;49.85;100179.94;10367533;28;20445;-73
2023/04/13 14:03:39;;;;;;;12.10;2.72;;;;;;;18.54;46.10;100174.31;10389496;28;20048;-73
2023/04/13 14:08:39;;;;;;;7.95;1.77;;;;;;;16.87;50.82;100181.00;10388595;28;20505;-74
2023/04/13 14:13:40;;;;;;;5.95;1.88;;;;;;;16.30;49.53;100201.41;10381651;28;20124;-74
2023/04/13 14:18:40;;;;;;;5.70;1.63;;;;;;;16.72;45.18;100184.34;10400614;28;20129;-74
2023/04/13 14:23:41;;;;;;;15.90;1.92;;;;;;;16.52;47.66;100209.63;10398131;28;20038;-73
2023/04/13 14:28:42;;;;;;;7.20;1.88;;;;;;;16.92;44.82;100203.94;10397774;28;20144;-73
2023/04/13 14:33:43;;;;;;;8.52;2.45;;;;;;;16.68;44.25;100211.59;10399107;28;20033;-73
2023/04/13 14:38:43;;;;;;;4.80;1.90;;;;;;;16.77;44.81;100218.75;10405755;28;20065;-73
2023/04/13 14:43:44;;;;;;;4.20;1.60;;;;;;;16.18;45.65;100214.44;10370815;28;20549;-73
2023/04/13 14:48:44;;;;;;;10.15;2.00;;;;;;;17.60;45.46;100200.19;10385584;28;20072;-73
2023/04/13 14:53:45;;;;;;;8.68;1.83;;;;;;;16.39;44.99;100205.94;10408490;28;20125;-73
2023/04/13 14:58:45;;;;;;;5.35;1.95;;;;;;;16.96;44.71;100217.19;10405124;28;20061;-73
2023/04/13 15:03:46;;;;;;;8.43;1.52;;;;;;;17.03;42.82;100220.84;10404877;28;20434;-74
2023/04/13 15:08:46;;;;;;;4.05;1.10;;;;;;;17.78;39.96;100224.16;10371736;28;20076;-76
2023/04/13 15:13:47;;;;;;;5.60;1.17;;;;;;;17.59;38.94;100224.88;10405512;28;20045;-75
2023/04/13 15:18:47;;;;;;;4.85;1.63;;;;;;;15.74;41.47;100240.16;10363983;28;20057;-74
2023/04/13 15:23:48;;;;;;;5.25;2.40;;;;;;;15.34;42.45;100234.19;10374518;28;20061;-74
2023/04/13 15:28:48;;;;;;;5.03;1.17;;;;;;;14.83;45.61;100237.66;10394667;28;20149;-74
2023/04/13 15:33:49;;;;;;;4.60;1.70;;;;;;;15.11;42.22;100242.56;10377470;28;20093;-76
2023/04/13 15:38:49;;;;;;;3.95;1.05;;;;;;;15.64;41.47;100232.94;10372965;28;20485;-76
2023/04/13 15:43:50;;;;;;;9.20;2.63;;;;;;;16.20;42.05;100245.31;10407107;28;20052;-76
2023/04/13 15:48:51;;;;;;;14.63;3.15;;;;;;;15.63;40.05;100241.72;10371607;28;20092;-76
2023/04/13 15:53:51;;;;;;;4.97;1.13;;;;;;;15.03;41.21;100242.44;10380992;28;20045;-75
2023/04/13 15:58:52;;;;;;;4.13;1.90;;;;;;;13.96;43.24;100247.97;10381212;28;20137;-75
2023/04/13 16:03:53;;;;;;;2.45;1.00;;;;;;;13.36;45.49;100249.97;10373415;28;20064;-75
2023/04/13 16:08:55;;;;;;;4.60;1.42;;;;;;;12.82;44.76;100261.63;10382513;28;20075;-77
2023/04/13 16:13:56;;;;;;;;;;;;;;;12.76;46.45;100252.75;10399981;28;20569;-76
2023/04/13 16:18:57;;;;;;;5.72;1.35;;;;;;;12.85;46.81;100253.84;10357321;28;20380;-75
2023/04/13 16:23:57;;;;;;;5.63;1.27;;;;;;;12.58;46.61;100263.56;10341704;28;20037;-76
2023/04/13 16:28:58;;;;;;;4.13;1.15;;;;;;;12.35;49.58;100265.50;10353740;28;20041;-76
2023/04/13 16:34:01;;;;;;;10.93;2.88;;;;;;;12.11;48.90;100269.16;10346085;28;20038;-76
2023/04/13 16:39:04;;;;;;;14.82;4.60;;;;;;;12.17;51.00;100273.69;10325128;28;20069;-77
2023/04/13 16:44:05;;;;;;;6.00;1.58;;;;;;;12.26;49.59;100280.97;10354543;28;20045;-76
2023/04/13 16:49:05;;;;;;;7.03;2.00;;;;;;;12.07;50.81;100279.47;10345551;28;20831;-77
2023/04/13 16:54:06;;;;;;;21.48;9.90;;;;;;;11.84;51.03;100288.38;10362011;28;20040;-78
2023/04/13 16:59:06;;;;;;;3.97;1.40;;;;;;;11.82;51.59;100297.00;10372127;28;20125;-76
2023/04/13 17:04:07;;;;;;;6.10;1.50;;;;;;;11.70;49.42;100303.63;10373739;28;20177;-75
2023/04/13 17:09:08;;;;;;;6.65;2.08;;;;;;;11.49;50.70;100303.78;10398709;28;20068;-76
2023/04/13 17:14:09;;;;;;;2.93;1.00;;;;;;;11.30;51.76;100318.84;10374567;28;20034;-76
2023/04/13 17:19:10;;;;;;;4.43;1.10;;;;;;;10.95;52.45;100321.06;10367476;28;20073;-76
2023/04/13 17:24:10;;;;;;;4.15;1.15;;;;;;;10.78;53.43;100338.75;10382805;28;20581;-75
2023/04/13 17:29:10;;;;;;;2.35;1.10;;;;;;;10.63;54.51;100335.53;10376407;28;20073;-75
2023/04/13 17:34:11;;;;;;;4.72;2.03;;;;;;;10.63;58.08;100349.53;10324359;28;20128;-76
2023/04/13 17:39:12;;;;;;;8.05;1.65;;;;;;;10.57;57.10;100357.13;10364716;28;20065;-76
2023/04/13 17:44:14;;;;;;;5.45;2.78;;;;;;;10.45;58.27;100365.38;10370772;28;20477;-76
2023/04/13 17:49:14;;;;;;;9.93;4.45;;;;;;;10.36;59.06;100372.81;10383035;28;20556;-76
2023/04/13 17:54:15;;;;;;;4.07;1.20;;;;;;;10.35;59.40;100387.63;10356609;28;20117;-76
2023/04/13 17:59:15;;;;;;;20.15;11.50;;;;;;;10.05;64.73;100423.84;10373035;28;20054;-75
2023/04/13 18:04:16;;;;;;;7.43;3.28;;;;;;;9.17;66.35;100423.47;10343731;28;20073;-74
2023/04/13 18:09:17;;;;;;;4.82;1.02;;;;;;;8.91;88.47;100420.53;10382402;28;20034;-75
2023/04/13 18:14:17;;;;;;;2.78;0.93;;;;;;;8.58;100.00;100413.81;10326856;28;20053;-75
2023/04/13 18:19:18;;;;;;;4.03;2.85;;;;;;;8.07;100.00;100419.97;10337436;28;20040;-75
2023/04/13 18:24:18;;;;;;;3.97;1.40;;;;;;;7.55;100.00;100425.97;10357587;28;20122;-75
2023/04/13 18:29:19;;;;;;;2.63;1.67;;;;;;;7.30;100.00;100445.50;10364112;28;20068;-76
2023/04/13 18:34:19;;;;;;;4.05;1.65;;;;;;;7.04;100.00;100452.78;10361719;28;20084;-75
2023/04/13 18:39:20;;;;;;;2.50;1.33;;;;;;;6.80;100.00;100459.22;10380781;28;20457;-76
2023/04/13 18:44:20;;;;;;;4.38;1.65;;;;;;;6.44;100.00;100478.91;10352952;28;20044;-75
2023/04/13 18:49:21;;;;;;;4.93;1.63;;;;;;;6.32;100.00;100475.59;10392299;28;20057;-76
2023/04/13 18:54:21;;;;;;;4.60;2.00;;;;;;;6.13;100.00;100491.81;10415716;28;20199;-75
2023/04/13 18:59:22;;;;;;;9.27;1.58;;;;;;;5.94;100.00;100484.56;10401776;28;20061;-75
2023/04/13 19:04:22;;;;;;;9.43;2.03;;;;;;;5.94;100.00;100498.47;10357673;28;20042;-76
2023/04/13 19:09:23;;;;;;;3.90;1.25;;;;;;;5.86;100.00;100503.19;10399399;28;20141;-75
2023/04/13 19:14:23;;;;;;;5.60;3.10;;;;;;;5.65;100.00;100510.59;10383092;28;20123;-75
2023/04/13 19:19:24;;;;;;;5.60;1.27;;;;;;;5.44;100.00;100516.22;10400154;28;20068;-76
2023/04/13 19:24:25;;;;;;;5.32;1.42;;;;;;;5.35;100.00;100523.44;10389114;28;20595;-76
2023/04/13 19:29:28;;;;;;;6.88;1.73;;;;;;;5.19;100.00;100525.88;10405259;28;20377;-75
2023/04/13 19:34:29;;;;;;;13.52;2.85;;;;;;;5.01;100.00;100539.44;10379372;28;20041;-75
2023/04/13 19:39:30;;;;;;;5.40;2.28;;;;;;;4.93;100.00;100544.13;10364247;28;20396;-75
2023/04/13 19:44:30;;;;;;;6.57;2.33;;;;;;;4.99;100.00;100541.94;10388502;28;20482;-75
2023/04/13 19:49:32;;;;;;;7.82;2.20;;;;;;;5.03;100.00;100549.91;10400126;28;20053;-75
2023/04/13 19:54:32;;;;;;;6.37;2.40;;;;;;;5.26;100.00;100543.63;10367405;28;20092;-75
2023/04/13 19:59:33;;;;;;;7.40;2.13;;;;;;;5.29;100.00;100552.47;10394812;28;20117;-75
2023/04/13 20:04:33;;;;;;;13.70;1.92;;;;;;;5.39;100.00;100558.25;10367095;28;20371;-76
2023/04/13 20:09:34;;;;;;;6.20;2.03;;;;;;;5.21;100.00;100558.00;10359286;28;20034;-75
2023/04/13 20:14:34;;;;;;;5.65;2.58;;;;;;;5.13;100.00;100568.78;10384742;28;20143;-75
2023/04/13 20:19:35;;;;;;;9.70;3.22;;;;;;;5.02;100.00;100572.38;10400694;28;20057;-75
2023/04/13 20:24:35;;;;;;;4.55;2.00;;;;;;;4.79;100.00;100582.13;10388119;28;20115;-76
2023/04/13 20:29:36;;;;;;;6.18;2.22;;;;;;;4.68;100.00;100588.28;10394616;28;20048;-75
2023/04/13 20:34:36;;;;;;;5.70;2.30;;;;;;;4.59;100.00;100592.88;10371352;28;20066;-75
2023/04/13 20:39:49;;;;;;;6.47;1.95;;;;;;;4.39;100.00;100597.59;10385748;28;20069;-74
2023/04/13 20:45:00;;;;;;;4.70;2.20;;;;;;;4.22;100.00;100601.59;10364671;28;20121;-75
2023/04/13 20:50:03;;;;;;;4.57;1.77;;;;;;;4.14;100.00;100597.59;10393059;28;20489;-75
2023/04/13 20:55:04;;;;;;;5.22;1.90;;;;;;;4.14;100.00;100610.53;10370750;28;20037;-75
2023/04/13 21:00:07;;;;;;;4.80;2.67;;;;;;;4.09;100.00;100607.66;10394415;28;20045;-75
2023/04/13 21:05:09;;;;;;;10.18;2.22;;;;;;;4.00;100.00;100618.25;10413019;28;20398;-75
2023/04/13 21:10:10;;;;;;;3.80;1.85;;;;;;;3.81;100.00;100623.84;10365914;28;20046;-75
2023/04/13 21:15:10;;;;;;;9.57;4.55;;;;;;;3.66;100.00;100619.38;10400675;28;20049;-75
2023/04/13 21:20:11;;;;;;;8.00;3.33;;;;;;;3.58;100.00;100624.75;10392286;28;20050;-75
2023/04/13 21:25:11;;;;;;;6.72;3.50;;;;;;;3.45;100.00;100634.22;10374396;28;20516;-75
2023/04/13 21:30:12;;;;;;;8.70;2.45;;;;;;;3.39;100.00;100631.19;10387475;28;20075;-75
2023/04/13 21:35:16;;;;;;;12.23;2.75;;;;;;;3.34;100.00;100633.47;10385067;28;20496;-75
2023/04/13 21:40:17;;;;;;;10.45;3.58;;;;;;;3.22;100.00;100645.50;10390891;28;20069;-75
2023/04/13 21:45:17;;;;;;;4.88;2.88;;;;;;;3.25;100.00;100643.16;10374644;28;20489;-75
2023/04/13 21:50:19;;;;;;;6.45;2.17;;;;;;;3.08;100.00;100653.16;10385288;28;20141;-75
2023/04/13 21:55:20;;;;;;;6.82;2.78;;;;;;;3.06;100.00;100649.53;10360741;28;20128;-75
2023/04/13 22:00:21;;;;;;;6.97;2.80;;;;;;;2.96;100.00;100644.47;10377859;28;20065;-75
2023/04/13 22:05:21;;;;;;;9.05;3.17;;;;;;;2.84;100.00;100647.03;10376265;28;20121;-75
2023/04/13 22:10:22;;;;;;;10.35;2.63;;;;;;;2.67;100.00;100644.84;10387082;28;20092;-75
2023/04/13 22:15:22;;;;;;;4.75;2.28;;;;;;;2.54;100.00;100645.63;10358364;28;20069;-75
2023/04/13 22:20:23;;;;;;;4.57;2.10;;;;;;;2.49;100.00;100655.59;10344758;28;20126;-76
2023/04/13 22:25:26;;;;;;;7.55;2.05;;;;;;;2.43;100.00;100648.28;10373122;28;20148;-75
2023/04/13 22:30:28;;;;;;;11.93;3.70;;;;;;;2.42;100.00;100649.06;10373892;28;20053;-75
2023/04/13 22:35:28;;;;;;;7.78;3.17;;;;;;;2.36;100.00;100648.59;10370582;28;20037;-75
2023/04/13 22:40:29;;;;;;;9.07;3.70;;;;;;;2.35;100.00;100654.53;10369693;28;20045;-74
2023/04/13 22:45:30;;;;;;;12.82;3.67;;;;;;;2.31;100.00;100655.97;10355086;28;20049;-74
2023/04/13 22:50:31;;;;;;;7.38;3.83;;;;;;;2.25;100.00;100652.03;10381605;28;20045;-75
2023/04/13 22:55:31;;;;;;;9.68;3.75;;;;;;;2.10;100.00;100643.97;10399425;28;20122;-75
2023/04/13 23:00:33;;;;;;;7.80;2.20;;;;;;;1.95;100.00;100652.31;10348152;28;20129;-75
2023/04/13 23:05:34;;;;;;;8.38;2.47;;;;;;;1.80;100.00;100656.28;10366984;28;20052;-74
2023/04/13 23:10:34;;;;;;;5.05;2.30;;;;;;;1.68;100.00;100661.38;10391293;28;20038;-74